Time;durP1;ratioP1;P1;durP2;ratioP2;P2;SDS_P1;SDS_P2;PMS_P1;PMS_P2;Temp;Humidity;BMP_temperature;BMP_pressure;BME280_temperature;BME280_humidity;BME280_pressure;Samples;Min_cycle;Max_cycle;Signal;HPM_P1;HPM_P2
2023/05/30 00:01:19;;;;;;;6.13;4.70;;;;;;;14.35;100.00;94524.47;5070656;28;20186;-45
2023/05/30 00:03:47;;;;;;;8.83;5.83;;;;;;;14.28;100.00;94508.88;5050575;28;20191;-46
2023/05/30 00:06:15;;;;;;;8.47;5.43;;;;;;;14.29;100.00;94526.72;5050191;28;20195;-45
2023/05/30 00:08:43;;;;;;;11.10;5.43;;;;;;;14.28;100.00;94519.97;5059096;28;20279;-46
2023/05/30 00:11:13;;;;;;;5.17;4.67;;;;;;;14.26;100.00;94518.53;5070146;28;20198;-45
2023/05/30 00:13:42;;;;;;;6.07;4.87;;;;;;;14.24;100.00;94525.59;5070513;28;20183;-47
2023/05/30 00:16:10;;;;;;;8.77;5.23;;;;;;;14.26;100.00;94534.75;5069514;28;20562;-46
2023/05/30 00:18:37;;;;;;;6.67;5.97;;;;;;;14.23;100.00;94534.28;5070348;28;20213;-46
2023/05/30 00:21:06;;;;;;;6.13;5.30;;;;;;;14.20;100.00;94532.84;5070336;28;20186;-44
2023/05/30 00:23:34;;;;;;;8.87;5.43;;;;;;;14.14;100.00;94530.94;5073890;28;20194;-48
2023/05/30 00:26:01;;;;;;;10.93;5.70;;;;;;;14.06;100.00;94510.38;5076729;28;20194;-45
2023/05/30 00:28:29;;;;;;;10.53;5.67;;;;;;;14.18;100.00;94533.97;5070045;28;20318;-46
2023/05/30 00:30:56;;;;;;;6.17;5.60;;;;;;;14.18;100.00;94539.13;5069312;28;20182;-45
2023/05/30 00:33:23;;;;;;;8.70;6.17;;;;;;;14.13;100.00;94534.47;5069819;28;20590;-46
2023/05/30 00:35:50;;;;;;;6.23;5.63;;;;;;;14.12;100.00;94532.88;5069997;28;20194;-45
2023/05/30 00:38:18;;;;;;;7.23;6.23;;;;;;;14.14;100.00;94530.13;5069706;28;20273;-46
2023/05/30 00:40:45;;;;;;;7.77;5.37;;;;;;;14.03;100.00;94519.22;5069343;28;20204;-45
2023/05/30 00:43:12;;;;;;;5.77;4.90;;;;;;;13.86;100.00;94507.34;5069175;28;20198;-46
2023/05/30 00:45:39;;;;;;;9.43;5.20;;;;;;;14.06;100.00;94539.44;5069874;28;20198;-47
2023/05/30 00:48:06;;;;;;;6.57;4.70;;;;;;;14.03;100.00;94537.22;5072672;28;20222;-46
2023/05/30 00:50:34;;;;;;;5.30;4.90;;;;;;;14.02;100.00;94545.88;5069823;28;20278;-44
2023/05/30 00:53:02;;;;;;;7.57;5.80;;;;;;;14.00;100.00;94539.31;5069803;28;20194;-45
2023/05/30 00:55:30;;;;;;;6.27;5.67;;;;;;;13.99;100.00;94541.09;5069752;28;20194;-45
2023/05/30 00:57:57;;;;;;;9.60;5.57;;;;;;;14.01;100.00;94546.06;5069632;28;20208;-45
2023/05/30 01:00:26;;;;;;;5.50;5.00;;;;;;;13.94;100.00;94527.88;5069936;28;20217;-47
2023/05/30 01:02:59;;;;;;;5.40;4.90;;;;;;;13.99;100.00;94543.66;5069340;28;20299;-46
2023/05/30 01:05:26;;;;;;;6.90;6.20;;;;;;;13.98;100.00;94543.78;5069895;28;20190;-44
2023/05/30 01:07:53;;;;;;;7.93;5.13;;;;;;;13.95;100.00;94536.44;5069471;28;20226;-45
2023/05/30 01:10:21;;;;;;;5.67;5.17;;;;;;;13.96;100.00;94535.47;5069457;28;20205;-45
2023/05/30 01:13:02;;;;;;;7.93;5.23;;;;;;;13.93;100.00;94539.13;5069235;28;20202;-45
2023/05/30 01:15:33;;;;;;;6.77;5.33;;;;;;;13.93;100.00;94540.91;5069583;28;20193;-46
2023/05/30 01:18:04;;;;;;;8.07;5.63;;;;;;;13.90;100.00;94538.66;5069366;28;20273;-44
2023/05/30 01:20:33;;;;;;;7.27;4.90;;;;;;;13.88;100.00;94533.69;5069632;28;20222;-45
2023/05/30 01:23:13;;;;;;;5.33;4.83;;;;;;;13.87;100.00;94528.72;5068694;28;20186;-43
2023/05/30 01:25:59;;;;;;;6.23;4.93;;;;;;;13.86;100.00;94524.53;5069429;28;20272;-45
2023/05/30 01:28:30;;;;;;;6.13;4.77;;;;;;;13.85;100.00;94523.72;5073305;28;20233;-45
2023/05/30 01:30:59;;;;;;;7.50;5.50;;;;;;;13.77;100.00;94519.41;5073508;28;20586;-46
2023/05/30 01:33:27;;;;;;;5.70;5.20;;;;;;;13.83;100.00;94530.81;5072933;28;20225;-44
2023/05/30 01:35:53;;;;;;;5.87;5.27;;;;;;;13.78;100.00;94522.78;5072939;28;20273;-46
2023/05/30 01:38:20;;;;;;;6.73;4.83;;;;;;;13.80;100.00;94525.97;5073469;28;20269;-43
2023/05/30 01:40:51;;;;;;;8.47;5.00;;;;;;;13.53;100.00;94486.00;5073202;28;20187;-45
2023/05/30 01:43:32;;;;;;;6.63;4.70;;;;;;;13.78;100.00;94523.56;5072934;28;20469;-44
2023/05/30 01:46:03;;;;;;;5.90;5.30;;;;;;;13.77;100.00;94521.97;5073117;28;20190;-45
2023/05/30 01:48:39;;;;;;;5.80;4.47;;;;;;;13.75;100.00;94523.88;5073173;28;20229;-44
2023/05/30 01:51:12;;;;;;;7.27;4.90;;;;;;;13.70;100.00;94518.44;5072520;28;20221;-45
2023/05/30 01:53:42;;;;;;;6.57;5.00;;;;;;;13.63;100.00;94506.38;5073022;28;20194;-43
2023/05/30 01:56:12;;;;;;;5.43;4.70;;;;;;;13.75;100.00;94525.66;5063759;28;20279;-45
2023/05/30 01:58:41;;;;;;;8.30;5.17;;;;;;;13.70;100.00;94522.78;5072929;28;20676;-45
2023/05/30 02:01:09;;;;;;;5.70;4.70;;;;;;;13.72;100.00;94533.69;5072956;28;20190;-44
2023/05/30 02:03:36;;;;;;;7.77;5.00;;;;;;;13.70;100.00;94527.91;5073589;28;20665;-46
2023/05/30 02:06:03;;;;;;;6.40;5.40;;;;;;;13.68;100.00;94528.06;5072624;28;20666;-45
2023/05/30 02:08:30;;;;;;;10.63;5.23;;;;;;;13.67;100.00;94529.03;5073672;28;20230;-44
2023/05/30 02:10:57;;;;;;;6.00;5.40;;;;;;;13.69;100.00;94541.75;5074067;28;20275;-46
2023/05/30 02:13:24;;;;;;;7.43;4.63;;;;;;;13.67;100.00;94541.06;5074005;28;20687;-45
2023/05/30 02:15:52;;;;;;;8.13;5.43;;;;;;;13.66;100.00;94550.56;5075843;28;20283;-46
2023/05/30 02:18:19;;;;;;;7.40;5.17;;;;;;;13.62;100.00;94545.91;5077962;28;20248;-45
2023/05/30 02:20:46;;;;;;;5.47;4.97;;;;;;;13.61;100.00;94541.72;5073880;28;20187;-46
2023/05/30 02:23:13;;;;;;;7.77;5.20;;;;;;;13.60;100.00;94545.25;5073223;28;20277;-44
2023/05/30 02:25:40;;;;;;;6.43;5.13;;;;;;;13.58;100.00;94540.28;5074414;28;20186;-47
2023/05/30 02:28:06;;;;;;;5.90;5.27;;;;;;;13.55;100.00;94540.59;5065759;28;20237;-45
2023/05/30 02:30:33;;;;;;;6.17;5.43;;;;;;;13.51;100.00;94536.72;5075683;28;20304;-43
2023/05/30 02:33:01;;;;;;;13.10;5.97;;;;;;;13.52;100.00;94538.34;5074476;28;20195;-45
2023/05/30 02:35:28;;;;;;;7.70;5.40;;;;;;;13.49;100.00;94530.94;5081101;28;20252;-42
2023/05/30 02:37:55;;;;;;;6.20;5.17;;;;;;;13.52;100.00;94535.78;5080848;28;20197;-45
2023/05/30 02:40:22;;;;;;;9.50;5.07;;;;;;;13.50;100.00;94540.25;5080247;28;20194;-43
2023/05/30 02:42:49;;;;;;;7.37;4.97;;;;;;;13.45;100.00;94533.03;5079440;28;20201;-45
2023/05/30 02:45:16;;;;;;;5.97;5.37;;;;;;;13.28;100.00;94503.94;5081035;28;20182;-45
2023/05/30 02:47:42;;;;;;;6.30;5.57;;;;;;;13.45;100.00;94535.59;5078642;28;20179;-47
2023/05/30 02:50:11;;;;;;;6.90;5.43;;;;;;;13.44;100.00;94533.19;5075365;28;20253;-42
2023/05/30 02:52:38;;;;;;;8.20;5.50;;;;;;;13.41;100.00;94539.44;5072694;28;20202;-44
2023/05/30 02:55:06;;;;;;;5.77;5.20;;;;;;;13.38;100.00;94526.09;5072143;28;20194;-45
2023/05/30 02:57:32;;;;;;;5.33;4.80;;;;;;;13.44;100.00;94543.47;5072108;28;20225;-45
2023/05/30 02:59:59;;;;;;;6.27;5.67;;;;;;;13.24;100.00;94512.94;5071375;28;20230;-51
2023/05/30 03:02:26;;;;;;;6.73;5.73;;;;;;;13.45;100.00;94535.59;5071953;28;20182;-45
2023/05/30 03:04:53;;;;;;;8.03;5.77;;;;;;;13.45;100.00;94537.38;5072006;28;20186;-46
2023/05/30 03:07:21;;;;;;;7.33;6.20;;;;;;;13.42;100.00;94535.91;5071923;28;20190;-45
2023/05/30 03:09:48;;;;;;;8.10;5.77;;;;;;;13.44;100.00;94522.94;5071181;28;20222;-44
2023/05/30 03:12:14;;;;;;;9.27;6.13;;;;;;;13.46;100.00;94539.75;5071344;28;20248;-44
2023/05/30 03:14:41;;;;;;;7.13;6.07;;;;;;;13.48;100.00;94532.72;5071466;28;20182;-45
2023/05/30 03:17:08;;;;;;;7.07;5.50;;;;;;;13.47;100.00;94523.41;5071525;28;20186;-43
2023/05/30 03:19:35;;;;;;;14.37;5.53;;;;;;;13.51;100.00;94524.69;5070911;28;20193;-42
2023/05/30 03:22:02;;;;;;;7.23;5.63;;;;;;;13.53;100.00;94530.47;5071209;28;20190;-44
2023/05/30 03:24:30;;;;;;;7.53;5.63;;;;;;;13.56;100.00;94531.94;5071776;28;20202;-45
2023/05/30 03:26:57;;;;;;;8.23;6.07;;;;;;;13.59;100.00;94539.28;5071495;28;20179;-42
2023/05/30 03:29:24;;;;;;;9.53;5.20;;;;;;;13.63;100.00;94542.34;5070767;28;20230;-45
2023/05/30 03:31:51;;;;;;;6.20;5.60;;;;;;;13.65;100.00;94540.44;5070391;28;20197;-44
2023/05/30 03:34:18;;;;;;;6.13;5.53;;;;;;;13.68;100.00;94538.34;5071028;28;20634;-44
2023/05/30 03:36:45;;;;;;;12.70;5.83;;;;;;;13.71;100.00;94543.16;5070909;28;20204;-44
2023/05/30 03:39:12;;;;;;;11.83;5.63;;;;;;;13.74;100.00;94542.06;5070981;28;20645;-44
2023/05/30 03:41:41;;;;;;;9.00;5.90;;;;;;;13.71;100.00;94537.22;5070078;28;20666;-44
2023/05/30 03:44:07;;;;;;;6.77;5.90;;;;;;;13.79;100.00;94555.22;5071570;28;20228;-44
2023/05/30 03:46:35;;;;;;;8.03;5.97;;;;;;;13.80;100.00;94555.03;5070614;28;20187;-43
2023/05/30 03:49:01;;;;;;;6.00;5.40;;;;;;;13.86;100.00;94560.50;5071054;28;20324;-44
2023/05/30 03:51:28;;;;;;;7.30;5.90;;;;;;;13.88;100.00;94558.59;5069336;28;20190;-43
2023/05/30 03:53:55;;;;;;;6.03;5.43;;;;;;;13.94;100.00;94563.88;5070554;28;20210;-44
2023/05/30 03:56:22;;;;;;;8.37;5.73;;;;;;;13.97;100.00;94563.56;5070308;28;20191;-46
2023/05/30 03:58:50;;;;;;;7.33;5.60;;;;;;;13.97;100.00;94563.56;5070884;28;20342;-44
2023/05/30 04:01:17;;;;;;;9.80;6.10;;;;;;;14.05;100.00;94573.84;5069591;28;20197;-43
2023/05/30 04:03:44;;;;;;;7.00;5.97;;;;;;;14.11;100.00;94569.00;5070367;28;20567;-46
2023/05/30 04:06:11;;;;;;;7.90;6.10;;;;;;;14.19;100.00;94567.25;5069991;28;20194;-46
2023/05/30 04:08:39;;;;;;;9.70;5.93;;;;;;;14.13;100.00;94547.31;5070202;28;20704;-44
2023/05/30 04:11:06;;;;;;;7.93;6.00;;;;;;;14.31;100.00;94578.00;5070275;28;20257;-46
2023/05/30 04:13:33;;;;;;;8.67;6.87;;;;;;;14.36;100.00;94575.75;5070422;28;20186;-45
2023/05/30 04:16:01;;;;;;;10.50;6.17;;;;;;;14.43;100.00;94578.47;5070632;28;20202;-44
2023/05/30 04:18:28;;;;;;;9.57;6.17;;;;;;;14.52;100.00;94580.88;5070089;28;20194;-45
2023/05/30 04:20:55;;;;;;;10.73;6.57;;;;;;;14.65;100.00;94585.53;5069786;28;20190;-44
2023/05/30 04:23:22;;;;;;;7.77;6.43;;;;;;;14.82;100.00;94585.47;5070031;28;20190;-44
2023/05/30 04:25:49;;;;;;;8.67;6.30;;;;;;;15.00;100.00;94583.47;5069992;28;20201;-44
2023/05/30 04:28:17;;;;;;;7.53;5.70;;;;;;;15.28;99.54;94586.38;5069703;28;20253;-44
2023/05/30 04:30:48;;;;;;;11.17;6.40;;;;;;;15.43;98.52;94576.19;5069879;28;20213;-45
2023/05/30 04:33:16;;;;;;;6.97;5.73;;;;;;;15.72;97.55;94585.84;5070055;28;20225;-46
2023/05/30 04:35:44;;;;;;;10.37;6.23;;;;;;;15.89;96.86;94583.94;5069760;28;20273;-44
2023/05/30 04:38:20;;;;;;;9.10;6.60;;;;;;;16.00;96.03;94584.34;5070679;28;20546;-42
2023/05/30 04:40:50;;;;;;;9.30;6.57;;;;;;;16.16;95.91;94587.78;5069931;28;20719;-45
2023/05/30 04:43:19;;;;;;;9.60;6.73;;;;;;;16.30;94.92;94587.81;5069981;28;20637;-44
2023/05/30 04:45:49;;;;;;;14.73;8.40;;;;;;;16.46;94.38;94588.63;5071271;28;20538;-45
2023/05/30 04:48:17;;;;;;;14.70;6.67;;;;;;;16.66;93.45;94596.66;5070351;28;20186;-44
2023/05/30 04:50:46;;;;;;;9.50;6.23;;;;;;;16.86;92.42;94599.53;5071814;28;20573;-46
2023/05/30 04:53:15;;;;;;;7.73;5.83;;;;;;;17.05;90.84;94596.41;5069544;28;20308;-44
2023/05/30 04:55:43;;;;;;;5.70;5.20;;;;;;;17.42;89.63;94605.81;5070041;28;20194;-45
2023/05/30 04:58:10;;;;;;;9.27;5.70;;;;;;;17.54;88.84;94586.25;5070630;28;20284;-43
2023/05/30 05:00:37;;;;;;;9.33;5.77;;;;;;;17.94;87.53;94607.38;5069625;28;20194;-45
2023/05/30 05:03:04;;;;;;;10.73;5.93;;;;;;;18.16;85.44;94609.94;5071291;28;20190;-45
2023/05/30 05:05:32;;;;;;;10.13;5.63;;;;;;;18.38;84.13;94614.09;5070978;28;20752;-45
2023/05/30 05:07:59;;;;;;;10.03;5.87;;;;;;;18.56;83.16;94624.00;5070260;28;20191;-44
2023/05/30 05:10:26;;;;;;;10.80;5.77;;;;;;;18.67;83.04;94620.91;5071028;28;20296;-45
2023/05/30 05:12:53;;;;;;;10.37;6.33;;;;;;;18.72;81.38;94615.19;5071305;28;20243;-45
2023/05/30 05:15:20;;;;;;;8.70;5.83;;;;;;;19.05;80.14;94620.56;5070955;28;20275;-44
2023/05/30 05:17:47;;;;;;;8.70;5.90;;;;;;;19.39;78.62;94629.31;5069763;28;20190;-45
2023/05/30 05:20:14;;;;;;;9.93;6.67;;;;;;;19.71;77.29;94622.66;5071656;28;20190;-45
2023/05/30 05:22:42;;;;;;;10.57;6.67;;;;;;;19.80;76.08;94630.06;5068996;28;20282;-45
2023/05/30 05:25:10;;;;;;;8.77;5.97;;;;;;;19.73;76.12;94628.44;5069537;28;20205;-45
2023/05/30 05:27:39;;;;;;;13.33;6.33;;;;;;;19.75;76.46;94632.44;5069734;28;20236;-46
2023/05/30 05:30:08;;;;;;;9.93;6.60;;;;;;;19.89;74.62;94627.28;5070122;28;20750;-46
2023/05/30 05:32:36;;;;;;;8.07;6.97;;;;;;;19.88;74.64;94634.28;5069659;28;20182;-44
2023/05/30 05:35:03;;;;;;;6.90;6.27;;;;;;;19.77;73.77;94635.66;5069668;28;20186;-45
2023/05/30 05:37:30;;;;;;;8.17;6.17;;;;;;;19.69;73.96;94645.38;5069140;28;20178;-45
2023/05/30 05:39:59;;;;;;;8.40;6.03;;;;;;;19.64;74.19;94637.38;5069252;28;20198;-45
2023/05/30 05:42:26;;;;;;;10.80;6.23;;;;;;;19.63;75.28;94640.97;5069108;28;20251;-44
2023/05/30 05:44:52;;;;;;;9.50;6.47;;;;;;;19.59;77.10;94648.31;5068746;28;20201;-46
2023/05/30 05:47:19;;;;;;;9.85;6.47;;;;;;;19.51;77.87;94651.88;5068953;28;20197;-46
2023/05/30 05:49:46;;;;;;;11.70;7.17;;;;;;;19.53;76.64;94657.69;5068916;28;20248;-44
2023/05/30 05:52:13;;;;;;;8.03;7.17;;;;;;;19.38;75.73;94654.41;5068944;28;20183;-46
2023/05/30 05:54:39;;;;;;;9.10;7.07;;;;;;;19.22;77.25;94650.38;5068501;28;20186;-46
2023/05/30 05:57:08;;;;;;;9.23;6.83;;;;;;;19.11;77.92;94655.28;5068688;28;20183;-45
2023/05/30 05:59:35;;;;;;;8.87;7.40;;;;;;;18.99;78.36;94655.00;5069385;28;20202;-46
2023/05/30 06:02:01;;;;;;;9.83;7.57;;;;;;;18.85;78.30;94648.94;5069129;28;20649;-45
2023/05/30 06:04:28;;;;;;;12.47;7.70;;;;;;;18.70;78.66;94648.25;5069226;28;20183;-46
2023/05/30 06:06:55;;;;;;;15.03;8.00;;;;;;;18.61;79.17;94647.56;5068558;28;20202;-45
2023/05/30 06:09:24;;;;;;;13.80;7.87;;;;;;;18.56;79.56;94650.69;5069054;28;20313;-45
2023/05/30 06:11:50;;;;;;;10.87;7.87;;;;;;;18.54;79.64;94649.28;5068593;28;20190;-45
2023/05/30 06:14:19;;;;;;;13.47;8.17;;;;;;;18.53;79.64;94651.09;5071127;28;20182;-43
2023/05/30 06:16:45;;;;;;;10.90;7.83;;;;;;;18.67;79.36;94656.38;5072454;28;20194;-47
2023/05/30 06:19:12;;;;;;;12.60;8.30;;;;;;;18.81;78.89;94658.09;5072089;28;20201;-45
2023/05/30 06:21:39;;;;;;;15.63;8.50;;;;;;;19.00;78.74;94661.81;5072208;28;20208;-46
2023/05/30 06:24:06;;;;;;;12.67;8.90;;;;;;;19.21;77.38;94645.34;5060422;28;20198;-44
2023/05/30 06:26:33;;;;;;;13.20;8.87;;;;;;;19.51;76.67;94656.25;5071099;28;20201;-44
2023/05/30 06:29:00;;;;;;;14.90;8.33;;;;;;;19.69;75.78;94659.19;5068817;28;20612;-46
2023/05/30 06:31:28;;;;;;;11.13;9.27;;;;;;;19.86;75.46;94661.41;5071884;28;20185;-44
2023/05/30 06:33:55;;;;;;;15.50;9.90;;;;;;;19.93;74.66;94664.81;5071007;28;20225;-45
2023/05/30 06:36:22;;;;;;;11.80;8.97;;;;;;;19.19;74.65;94559.22;5070329;28;20251;-44
2023/05/30 06:38:51;;;;;;;13.03;8.90;;;;;;;19.74;75.65;94671.56;5070838;28;20194;-44
2023/05/30 06:41:18;;;;;;;17.40;9.43;;;;;;;19.72;76.23;94668.34;5070893;28;20187;-45
2023/05/30 06:43:44;;;;;;;11.67;9.43;;;;;;;19.72;75.93;94665.75;5070507;28;20553;-44
2023/05/30 06:46:11;;;;;;;17.37;9.50;;;;;;;19.69;76.29;94672.16;5071200;28;20693;-44
2023/05/30 06:48:39;;;;;;;14.73;9.30;;;;;;;19.64;76.48;94671.91;5070392;28;20191;-45
2023/05/30 06:51:07;;;;;;;14.02;9.18;;;;;;;19.70;76.39;94672.94;5070887;28;20229;-45
2023/05/30 06:53:34;;;;;;;14.40;9.40;;;;;;;19.69;76.04;94673.91;5070446;28;20194;-44
2023/05/30 06:56:00;;;;;;;14.37;10.80;;;;;;;19.72;75.89;94678.72;5070278;28;20582;-43
2023/05/30 06:58:27;;;;;;;16.93;11.47;;;;;;;19.69;75.62;94674.75;5070367;28;20598;-43
2023/05/30 07:00:54;;;;;;;11.87;10.10;;;;;;;19.66;75.53;94667.34;5069667;28;20195;-45
2023/05/30 07:03:21;;;;;;;17.10;10.43;;;;;;;19.67;75.78;94673.34;5070394;28;20183;-41
2023/05/30 07:05:49;;;;;;;21.37;10.60;;;;;;;19.69;75.45;94673.91;5069552;28;20194;-44
2023/05/30 07:08:16;;;;;;;17.25;11.02;;;;;;;19.83;74.89;94677.38;5070201;28;20252;-45
2023/05/30 07:10:43;;;;;;;18.23;10.00;;;;;;;19.84;74.67;94684.16;5069642;28;20574;-42
2023/05/30 07:13:10;;;;;;;16.80;11.13;;;;;;;19.84;74.18;94679.78;5070350;28;20187;-42
2023/05/30 07:15:36;;;;;;;17.27;10.90;;;;;;;19.75;74.70;94681.75;5069975;28;20691;-45
2023/05/30 07:18:03;;;;;;;15.10;10.50;;;;;;;19.84;74.94;94684.16;5070651;28;20680;-43
2023/05/30 07:20:30;;;;;;;17.20;11.13;;;;;;;19.85;73.77;94652.03;5070639;28;20194;-41
2023/05/30 07:22:58;;;;;;;15.33;11.10;;;;;;;20.25;73.81;94682.28;5070383;28;20685;-43
2023/05/30 07:25:25;;;;;;;13.55;10.27;;;;;;;20.36;72.71;94680.88;5069999;28;20715;-44
2023/05/30 07:27:52;;;;;;;16.33;10.23;;;;;;;20.74;71.86;94685.53;5069827;28;20759;-44
2023/05/30 07:30:18;;;;;;;26.25;10.55;;;;;;;21.07;70.49;94693.31;5068181;28;20209;-44
2023/05/30 07:32:45;;;;;;;18.38;9.30;;;;;;;21.41;68.25;94692.25;5069717;28;20201;-44
2023/05/30 07:35:12;;;;;;;15.77;9.75;;;;;;;21.59;67.99;94696.81;5070038;28;20578;-42
2023/05/30 07:37:39;;;;;;;17.65;8.82;;;;;;;21.62;67.28;94696.38;5069789;28;20271;-42
2023/05/30 07:40:08;;;;;;;16.83;8.75;;;;;;;21.46;67.79;94673.41;5069946;28;20187;-44
2023/05/30 07:42:36;;;;;;;12.93;9.35;;;;;;;21.72;67.30;94677.75;5069601;28;20182;-44
2023/05/30 07:45:03;;;;;;;12.38;8.30;;;;;;;21.94;66.84;94694.69;5069897;28;20197;-42
2023/05/30 07:47:30;;;;;;;13.88;8.75;;;;;;;22.26;66.49;94692.91;5069808;28;20621;-43
2023/05/30 07:49:57;;;;;;;9.57;8.57;;;;;;;22.63;64.75;94687.06;5069897;28;20254;-43
2023/05/30 07:52:24;;;;;;;16.17;8.05;;;;;;;22.82;62.81;94693.94;5069877;28;20557;-44
2023/05/30 07:54:51;;;;;;;11.77;8.43;;;;;;;23.13;62.47;94687.06;5069703;28;20194;-50
2023/05/30 07:57:19;;;;;;;19.52;9.07;;;;;;;23.34;61.88;94686.66;5070341;28;20202;-44
2023/05/30 07:59:48;;;;;;;11.15;6.32;;;;;;;23.61;61.24;94691.56;5069660;28;20189;-44
2023/05/30 08:02:15;;;;;;;9.25;6.03;;;;;;;23.90;60.23;94688.25;5070497;28;20183;-45
2023/05/30 08:04:42;;;;;;;9.95;5.60;;;;;;;23.70;59.46;94644.09;5070001;28;20186;-45
2023/05/30 08:07:09;;;;;;;6.30;5.07;;;;;;;24.12;58.27;94688.56;5069615;28;20251;-44
2023/05/30 08:09:36;;;;;;;8.93;5.60;;;;;;;24.20;57.91;94682.22;5068946;28;20225;-44
2023/05/30 08:12:04;;;;;;;6.93;4.07;;;;;;;24.36;57.24;94699.91;5069319;28;20200;-43
2023/05/30 08:14:33;;;;;;;5.78;5.18;;;;;;;24.32;56.84;94695.34;5068899;28;20247;-44
2023/05/30 08:17:01;;;;;;;6.15;4.43;;;;;;;24.20;56.42;94695.28;5068352;28;20186;-45
2023/05/30 08:19:30;;;;;;;7.90;5.03;;;;;;;24.13;56.96;94686.75;5069052;28;20186;-44
2023/05/30 08:21:57;;;;;;;6.25;5.38;;;;;;;24.12;57.72;94696.41;5067088;28;20194;-44
2023/05/30 08:24:23;;;;;;;9.93;4.90;;;;;;;24.15;57.63;94703.00;5068902;28;20225;-45
2023/05/30 08:26:50;;;;;;;7.80;6.05;;;;;;;23.90;58.33;94706.53;5068923;28;20798;-45
2023/05/30 08:29:17;;;;;;;8.15;6.70;;;;;;;23.73;58.80;94701.09;5067768;28;20276;-44
2023/05/30 08:31:45;;;;;;;11.90;6.13;;;;;;;23.59;58.76;94697.03;5068840;28;20494;-46
2023/05/30 08:34:12;;;;;;;9.02;6.22;;;;;;;23.51;59.02;94694.69;5068127;28;20191;-45
2023/05/30 08:36:39;;;;;;;12.20;6.70;;;;;;;23.46;59.85;94694.56;5068291;28;20194;-45
2023/05/30 08:39:05;;;;;;;8.63;5.65;;;;;;;23.36;59.79;94697.69;5068789;28;20193;-44
2023/05/30 08:41:32;;;;;;;5.05;4.55;;;;;;;23.17;60.75;94686.41;5068647;28;20198;-45
2023/05/30 08:43:59;;;;;;;9.63;5.85;;;;;;;23.17;61.31;94683.81;5068851;28;20198;-45
2023/05/30 08:46:27;;;;;;;13.32;6.28;;;;;;;23.08;62.43;94690.31;5068856;28;20201;-43
2023/05/30 08:48:57;;;;;;;10.95;4.85;;;;;;;23.08;63.40;94694.75;5068011;28;20195;-41
2023/05/30 08:51:25;;;;;;;5.35;4.35;;;;;;;23.17;63.09;94689.03;5064393;28;20230;-43
2023/05/30 08:53:56;;;;;;;7.35;4.70;;;;;;;23.22;62.62;94697.00;5065333;28;20256;-44
2023/05/30 08:56:29;;;;;;;7.00;5.35;;;;;;;23.45;62.23;94703.41;5066261;28;20277;-44
2023/05/30 08:58:58;;;;;;;5.00;3.95;;;;;;;23.40;61.73;94706.69;5065937;28;20198;-44
2023/05/30 09:01:25;;;;;;;6.03;4.32;;;;;;;23.53;61.75;94700.50;5065769;28;20593;-44
2023/05/30 09:03:53;;;;;;;7.57;4.10;;;;;;;23.81;60.26;94697.41;5065555;28;20190;-45
2023/05/30 09:06:22;;;;;;;4.93;3.90;;;;;;;23.67;60.17;94672.47;5064884;28;20294;-43
2023/05/30 09:08:51;;;;;;;7.78;6.18;;;;;;;23.68;60.04;94687.13;5065402;28;20649;-43
2023/05/30 09:11:20;;;;;;;7.75;5.13;;;;;;;23.48;61.00;94698.53;5065477;28;20232;-45
2023/05/30 09:13:48;;;;;;;11.60;4.75;;;;;;;23.53;61.35;94693.47;5065504;28;20233;-43
2023/05/30 09:16:15;;;;;;;5.90;5.30;;;;;;;23.63;60.50;94692.97;5062286;28;20182;-44
2023/05/30 09:18:42;;;;;;;7.63;4.75;;;;;;;23.60;61.20;94698.63;5065553;28;20197;-45
2023/05/30 09:21:09;;;;;;;6.43;3.85;;;;;;;23.64;60.96;94699.78;5066247;28;20339;-44
2023/05/30 09:23:37;;;;;;;7.35;3.58;;;;;;;23.35;61.75;94662.13;5068064;28;20198;-43
2023/05/30 09:26:09;;;;;;;8.45;4.30;;;;;;;23.45;61.24;94692.97;5067646;28;20198;-46
2023/05/30 09:28:36;;;;;;;7.53;3.78;;;;;;;23.25;61.86;94683.53;5067933;28;20319;-43
2023/05/30 09:31:04;;;;;;;4.18;3.42;;;;;;;23.08;63.22;94699.97;5067916;28;20234;-46
2023/05/30 09:33:45;;;;;;;3.92;3.50;;;;;;;22.92;63.59;94691.66;5068097;28;20198;-44
2023/05/30 09:36:18;;;;;;;4.65;3.05;;;;;;;23.00;63.32;94687.97;5067811;28;20702;-44
2023/05/30 09:38:57;;;;;;;8.43;3.90;;;;;;;23.12;63.20;94707.13;5067716;28;20272;-44
2023/05/30 09:41:25;;;;;;;3.63;3.10;;;;;;;23.03;63.18;94692.78;5067731;28;20209;-44
2023/05/30 09:43:54;;;;;;;4.70;3.55;;;;;;;23.09;62.91;94694.50;5067781;28;20289;-49
2023/05/30 09:46:22;;;;;;;3.95;3.25;;;;;;;23.25;62.81;94691.34;5067924;28;20182;-43
2023/05/30 09:48:49;;;;;;;5.07;3.45;;;;;;;23.12;63.22;94693.28;5069157;28;20711;-44
2023/05/30 09:51:16;;;;;;;3.70;3.33;;;;;;;23.02;63.51;94673.72;5071586;28;20221;-44
2023/05/30 09:53:57;;;;;;;4.43;3.65;;;;;;;23.17;63.28;94683.81;5071683;28;20202;-43
2023/05/30 09:56:31;;;;;;;4.80;3.80;;;;;;;23.26;63.18;94689.53;5070030;28;20623;-44
2023/05/30 09:58:58;;;;;;;11.40;3.88;;;;;;;23.27;63.90;94691.94;5071536;28;20190;-44
2023/05/30 10:01:25;;;;;;;4.75;3.55;;;;;;;23.36;62.95;94683.81;5071849;28;20214;-44
2023/05/30 10:03:52;;;;;;;8.68;4.22;;;;;;;23.49;62.58;94681.09;5071168;28;20186;-44
2023/05/30 10:06:20;;;;;;;6.97;3.40;;;;;;;23.61;62.33;94681.13;5071546;28;20208;-46
2023/05/30 10:08:48;;;;;;;5.60;3.88;;;;;;;23.45;61.57;94648.59;5072023;28;20198;-44
2023/05/30 10:11:16;;;;;;;5.57;3.78;;;;;;;23.61;60.52;94679.31;5071304;28;20257;-45
2023/05/30 10:13:43;;;;;;;5.05;3.47;;;;;;;23.58;61.42;94677.16;5071271;28;20194;-44
2023/05/30 10:16:12;;;;;;;3.83;3.45;;;;;;;23.60;60.84;94685.56;5071632;28;20205;-43
2023/05/30 10:18:44;;;;;;;5.50;3.40;;;;;;;23.62;60.61;94680.09;5071318;28;20344;-45
2023/05/30 10:21:13;;;;;;;8.95;4.35;;;;;;;23.61;60.54;94678.53;5071142;28;20190;-46
2023/05/30 10:23:41;;;;;;;6.93;3.95;;;;;;;23.51;60.80;94661.56;5071153;28;20191;-43
2023/05/30 10:26:12;;;;;;;4.35;3.95;;;;;;;23.63;61.08;94672.06;5071438;28;20222;-43
2023/05/30 10:28:44;;;;;;;8.00;4.50;;;;;;;23.71;60.03;94656.16;5071561;28;20222;-42
2023/05/30 10:31:13;;;;;;;5.22;3.65;;;;;;;23.66;60.00;94645.56;5072950;28;20229;-50
2023/05/30 10:33:44;;;;;;;5.10;3.05;;;;;;;24.07;59.05;94658.91;5072178;28;20664;-44
2023/05/30 10:36:12;;;;;;;12.60;3.65;;;;;;;24.10;59.37;94661.06;5071328;28;20280;-44
2023/05/30 10:38:47;;;;;;;3.13;2.50;;;;;;;24.24;57.92;94659.84;5070788;28;20292;-44
2023/05/30 10:41:24;;;;;;;3.58;3.28;;;;;;;24.48;57.77;94637.19;5071022;28;20683;-44
2023/05/30 10:44:04;;;;;;;5.00;2.75;;;;;;;24.64;56.47;94641.75;5070500;28;20293;-44
2023/05/30 10:46:40;;;;;;;3.85;2.65;;;;;;;24.64;55.70;94647.00;5069147;28;20845;-46
2023/05/30 10:49:14;;;;;;;4.93;3.13;;;;;;;24.74;55.81;94641.19;5071228;28;20205;-44
2023/05/30 10:52:02;;;;;;;5.10;3.22;;;;;;;24.24;55.36;94568.38;5070480;28;20210;-43
2023/05/30 10:54:31;;;;;;;4.60;3.17;;;;;;;24.84;56.07;94638.03;5069012;28;20186;-45
2023/05/30 10:56:59;;;;;;;3.47;3.00;;;;;;;24.87;56.32;94640.19;5070424;28;20278;-44
2023/05/30 10:59:27;;;;;;;4.95;2.88;;;;;;;24.83;55.41;94631.19;5070144;28;20258;-42
2023/05/30 11:02:05;;;;;;;5.43;3.45;;;;;;;24.98;56.04;94624.50;5070708;28;20198;-44
2023/05/30 11:04:35;;;;;;;3.20;2.70;;;;;;;25.12;54.99;94617.22;5068310;28;20206;-43
2023/05/30 11:07:04;;;;;;;6.32;3.13;;;;;;;25.08;55.00;94592.53;5069940;28;20326;-43
2023/05/30 11:09:31;;;;;;;3.63;2.88;;;;;;;25.25;54.71;94616.16;5070660;28;20673;-45
2023/05/30 11:11:59;;;;;;;3.17;2.55;;;;;;;25.10;54.05;94614.03;5071005;28;20814;-44
2023/05/30 11:14:29;;;;;;;4.70;2.65;;;;;;;25.19;53.84;94612.66;5070644;28;20206;-45
2023/05/30 11:16:58;;;;;;;2.88;2.67;;;;;;;25.21;54.38;94597.50;5070544;28;20584;-45
2023/05/30 11:19:28;;;;;;;3.92;2.60;;;;;;;25.26;54.34;94602.06;5070383;28;20201;-45
2023/05/30 11:22:00;;;;;;;4.07;3.00;;;;;;;25.09;54.98;94599.38;5070100;28;20199;-44
2023/05/30 11:24:28;;;;;;;2.60;2.40;;;;;;;24.99;54.32;94588.66;5070620;28;20190;-44
2023/05/30 11:26:56;;;;;;;3.28;2.42;;;;;;;24.89;53.69;94601.53;5069900;28;20201;-45
2023/05/30 11:29:37;;;;;;;2.40;2.20;;;;;;;24.56;54.88;94584.56;5070242;28;20222;-43
2023/05/30 11:32:08;;;;;;;2.72;2.53;;;;;;;24.45;54.55;94574.91;5069976;28;20210;-44